Time;durP1;ratioP1;P1;durP2;ratioP2;P2;SDS_P1;SDS_P2;PMS_P1;PMS_P2;Temp;Humidity;BMP_temperature;BMP_pressure;BME280_temperature;BME280_humidity;BME280_pressure;Samples;Min_cycle;Max_cycle;Signal;HPM_P1;HPM_P2
2023/12/19 00:00:10;;;;;;;17.83;12.80;;;1.70;99.90;;;;;;4968114;28;20386;-51
2023/12/19 00:02:36;;;;;;;16.58;12.38;;;1.70;99.90;;;;;;4967786;28;20030;-49
2023/12/19 00:05:02;;;;;;;17.30;12.73;;;1.80;99.90;;;;;;4950433;28;20405;-49
2023/12/19 00:07:29;;;;;;;18.33;12.35;;;1.70;99.90;;;;;;4968021;28;20027;-47
2023/12/19 00:09:55;;;;;;;16.70;12.52;;;1.70;99.90;;;;;;4967689;28;20027;-46
2023/12/19 00:12:20;;;;;;;16.55;13.25;;;1.70;99.90;;;;;;4967484;28;20539;-46
2023/12/19 00:14:46;;;;;;;18.35;12.98;;;1.60;99.90;;;;;;4967983;28;20489;-48
2023/12/19 00:17:11;;;;;;;18.50;12.95;;;1.60;99.90;;;;;;4967256;28;20027;-47
2023/12/19 00:19:37;;;;;;;16.38;12.27;;;1.60;99.90;;;;;;4967456;28;20038;-47
2023/12/19 00:22:02;;;;;;;16.33;12.15;;;1.60;99.90;;;;;;4967085;28;20049;-48
2023/12/19 00:24:28;;;;;;;16.83;12.43;;;1.60;99.90;;;;;;4967564;28;20042;-46
2023/12/19 00:26:53;;;;;;;15.82;11.82;;;1.70;99.90;;;;;;4968051;28;20055;-46
2023/12/19 00:29:19;;;;;;;17.33;11.05;;;1.70;99.90;;;;;;4967228;28;20278;-48
2023/12/19 00:31:45;;;;;;;14.75;11.60;;;1.70;99.90;;;;;;4967313;28;20027;-48
2023/12/19 00:34:10;;;;;;;14.75;11.57;;;1.90;99.90;;;;;;4949835;28;20065;-45
2023/12/19 00:36:36;;;;;;;16.65;11.57;;;1.80;99.90;;;;;;4967188;28;20512;-48
2023/12/19 00:39:04;;;;;;;17.63;11.40;;;1.80;99.90;;;;;;4949900;28;20027;-47
2023/12/19 00:41:30;;;;;;;20.13;13.02;;;1.80;99.90;;;;;;4967136;28;20088;-47
2023/12/19 00:43:55;;;;;;;17.08;12.15;;;1.90;99.90;;;;;;4967051;28;20034;-46
2023/12/19 00:46:21;;;;;;;18.35;12.63;;;2.00;99.90;;;;;;4967186;28;20035;-46
2023/12/19 00:48:46;;;;;;;16.85;11.77;;;2.10;99.90;;;;;;4966772;28;20035;-49
2023/12/19 00:51:12;;;;;;;16.45;11.93;;;2.10;99.90;;;;;;4966941;28;20342;-45
2023/12/19 00:53:38;;;;;;;14.18;11.25;;;2.10;99.90;;;;;;4967356;28;20031;-47
2023/12/19 00:56:09;;;;;;;15.77;11.95;;;2.10;99.90;;;;;;4967412;28;20488;-48
2023/12/19 00:58:36;;;;;;;19.40;12.63;;;2.20;99.90;;;;;;4949185;28;20039;-46
2023/12/19 01:01:03;;;;;;;18.38;11.80;;;2.10;99.90;;;;;;4966851;28;20031;-47
2023/12/19 01:03:28;;;;;;;17.10;11.63;;;2.00;99.90;;;;;;4949094;28;20029;-45
2023/12/19 01:05:54;;;;;;;22.33;12.98;;;2.00;99.90;;;;;;4966767;28;20542;-45
2023/12/19 01:08:19;;;;;;;22.13;14.65;;;2.00;99.90;;;;;;4966609;28;20062;-45
2023/12/19 01:10:45;;;;;;;18.92;13.98;;;2.10;99.90;;;;;;4966554;28;20027;-50
2023/12/19 01:13:10;;;;;;;22.15;14.13;;;2.10;99.90;;;;;;4966649;28;20031;-46
2023/12/19 01:15:35;;;;;;;20.80;14.45;;;2.10;99.90;;;;;;4968177;28;20057;-50
2023/12/19 01:18:01;;;;;;;21.85;15.07;;;2.10;99.90;;;;;;4991553;22;20424;-44
2023/12/19 01:20:27;;;;;;;19.67;13.15;;;2.00;99.90;;;;;;4988534;28;20079;-45
2023/12/19 01:22:52;;;;;;;23.52;13.93;;;2.00;99.90;;;;;;4957009;28;20023;-45
2023/12/19 01:25:18;;;;;;;20.58;14.43;;;2.00;99.90;;;;;;4969492;28;20042;-46
2023/12/19 01:27:43;;;;;;;18.77;13.63;;;2.00;99.90;;;;;;4968985;28;20034;-44
2023/12/19 01:30:09;;;;;;;20.70;14.27;;;2.00;99.90;;;;;;4969719;28;20480;-42
2023/12/19 01:32:34;;;;;;;22.08;14.48;;;2.00;99.90;;;;;;4969822;28;20048;-38
2023/12/19 01:35:00;;;;;;;24.52;14.25;;;2.00;99.90;;;;;;4972323;28;20039;-44
2023/12/19 01:37:25;;;;;;;20.63;14.43;;;2.00;99.90;;;;;;4974134;28;20103;-43
2023/12/19 01:39:51;;;;;;;20.13;14.55;;;2.00;99.90;;;;;;4973127;28;20019;-44
2023/12/19 01:42:16;;;;;;;20.35;14.35;;;2.10;99.90;;;;;;4972665;28;20034;-40
2023/12/19 01:44:49;;;;;;;20.60;14.60;;;2.10;99.90;;;;;;4972547;28;20027;-43
2023/12/19 01:47:14;;;;;;;18.38;13.43;;;2.10;99.90;;;;;;4972813;28;20042;-47
2023/12/19 01:49:40;;;;;;;20.85;14.57;;;2.00;99.90;;;;;;4972747;28;20615;-43
2023/12/19 01:52:06;;;;;;;21.08;14.10;;;2.00;99.90;;;;;;4972395;28;20027;-44
2023/12/19 01:54:32;;;;;;;21.98;15.00;;;1.80;99.90;;;;;;4972727;28;20030;-43
2023/12/19 01:56:58;;;;;;;21.17;14.98;;;1.90;99.90;;;;;;4972813;28;20030;-45
2023/12/19 01:59:23;;;;;;;22.38;15.10;;;1.90;99.90;;;;;;4972698;28;20031;-44
2023/12/19 02:01:50;;;;;;;21.98;15.50;;;1.80;99.90;;;;;;4956015;28;20110;-43
2023/12/19 02:04:15;;;;;;;22.63;15.38;;;1.80;99.90;;;;;;4973971;28;20121;-42
2023/12/19 02:06:41;;;;;;;19.25;13.07;;;1.70;99.90;;;;;;4972449;28;20102;-43
2023/12/19 02:09:07;;;;;;;20.25;14.10;;;1.70;99.90;;;;;;4972672;28;20489;-45
2023/12/19 02:11:32;;;;;;;20.88;14.52;;;1.70;99.90;;;;;;4972332;28;20023;-45
2023/12/19 02:13:58;;;;;;;21.25;13.60;;;1.60;99.90;;;;;;4972357;28;20378;-44
2023/12/19 02:16:26;;;;;;;17.17;12.98;;;1.50;99.90;;;;;;4972186;28;20474;-49
2023/12/19 02:19:04;;;;;;;17.80;12.50;;;1.40;99.90;;;;;;4972211;28;20043;-43
2023/12/19 02:21:31;;;;;;;17.15;11.90;;;1.40;99.90;;;;;;4971801;28;20030;-44
2023/12/19 02:23:56;;;;;;;22.10;14.07;;;1.40;99.90;;;;;;4972262;28;20034;-43
2023/12/19 02:26:24;;;;;;;20.70;13.43;;;1.40;99.90;;;;;;4972501;28;20031;-46
2023/12/19 02:28:52;;;;;;;20.25;13.77;;;1.40;99.90;;;;;;4954756;28;20042;-45
2023/12/19 02:31:19;;;;;;;21.00;15.23;;;1.60;99.90;;;;;;4971828;28;20126;-45
2023/12/19 02:33:45;;;;;;;20.77;14.52;;;1.70;99.90;;;;;;4972182;28;20023;-42
2023/12/19 02:36:11;;;;;;;24.27;15.82;;;1.80;99.90;;;;;;4971999;28;20038;-44
2023/12/19 02:38:36;;;;;;;29.63;17.83;;;1.80;99.90;;;;;;4972077;28;20030;-44
2023/12/19 02:41:02;;;;;;;26.95;16.75;;;1.90;99.90;;;;;;4971800;28;20023;-48
2023/12/19 02:43:28;;;;;;;34.63;17.70;;;1.90;99.90;;;;;;4954654;28;20030;-44
2023/12/19 02:45:53;;;;;;;25.23;16.60;;;1.90;99.90;;;;;;4971879;28;20035;-44
2023/12/19 02:48:19;;;;;;;27.10;17.40;;;1.80;99.90;;;;;;4971574;28;20474;-40
2023/12/19 02:50:44;;;;;;;28.27;17.50;;;1.80;99.90;;;;;;4971572;28;20027;-44
2023/12/19 02:53:10;;;;;;;29.42;17.17;;;1.90;99.90;;;;;;4971896;28;20418;-44
2023/12/19 02:55:35;;;;;;;32.97;18.00;;;1.90;99.90;;;;;;4971763;28;20442;-40
2023/12/19 02:58:01;;;;;;;31.25;17.48;;;1.90;99.90;;;;;;4971824;28;20018;-42
2023/12/19 03:00:26;;;;;;;29.88;17.10;;;1.90;99.90;;;;;;4971452;28;20035;-40
2023/12/19 03:02:52;;;;;;;29.35;17.70;;;1.90;99.90;;;;;;4972275;28;20491;-41
2023/12/19 03:05:19;;;;;;;32.63;17.50;;;2.00;99.90;;;;;;4971996;28;20030;-44
2023/12/19 03:07:44;;;;;;;29.95;18.10;;;2.00;99.90;;;;;;4971797;28;20062;-46
2023/12/19 03:10:09;;;;;;;33.72;19.33;;;2.00;99.90;;;;;;4971555;28;20073;-45
2023/12/19 03:12:35;;;;;;;28.45;17.55;;;2.00;99.90;;;;;;4971215;28;20027;-45
2023/12/19 03:15:02;;;;;;;33.50;17.67;;;2.00;99.90;;;;;;4971326;28;20053;-45
2023/12/19 03:17:28;;;;;;;27.42;17.58;;;2.00;99.90;;;;;;4971098;28;20031;-44
2023/12/19 03:19:53;;;;;;;28.35;17.08;;;2.00;99.90;;;;;;4971378;28;20060;-43
2023/12/19 03:22:19;;;;;;;29.48;18.60;;;2.00;99.90;;;;;;4970652;28;20062;-44
2023/12/19 03:24:45;;;;;;;29.63;17.30;;;2.00;99.90;;;;;;4971440;28;20394;-46
2023/12/19 03:27:11;;;;;;;25.40;15.80;;;1.90;99.90;;;;;;4971223;28;20053;-43
2023/12/19 03:29:36;;;;;;;33.90;16.25;;;1.90;99.90;;;;;;4971123;28;20023;-40
2023/12/19 03:32:02;;;;;;;27.35;17.52;;;2.00;99.90;;;;;;4971008;28;20047;-45
2023/12/19 03:34:28;;;;;;;31.25;17.35;;;2.00;99.90;;;;;;4971133;28;20042;-44
2023/12/19 03:36:54;;;;;;;33.10;17.92;;;2.00;99.90;;;;;;4971135;28;20077;-45
2023/12/19 03:39:19;;;;;;;28.85;16.67;;;2.00;99.90;;;;;;4971173;28;20027;-47
2023/12/19 03:41:45;;;;;;;30.95;18.52;;;2.10;99.90;;;;;;4970757;28;20080;-43
2023/12/19 03:44:10;;;;;;;29.23;17.33;;;2.10;99.90;;;;;;4971274;28;20031;-44
2023/12/19 03:46:36;;;;;;;30.27;18.45;;;2.10;99.90;;;;;;4953514;28;20022;-42
2023/12/19 03:49:02;;;;;;;30.00;17.73;;;2.10;99.90;;;;;;4953447;28;20114;-43
2023/12/19 03:51:27;;;;;;;33.35;18.08;;;2.20;99.90;;;;;;4952924;28;20374;-43
2023/12/19 03:53:53;;;;;;;27.83;15.70;;;2.10;99.90;;;;;;4970957;28;20046;-42
2023/12/19 03:56:18;;;;;;;28.55;16.67;;;2.20;99.90;;;;;;4970155;28;20106;-44
2023/12/19 03:58:44;;;;;;;29.08;17.10;;;2.30;99.90;;;;;;4972231;28;20026;-45
2023/12/19 04:01:11;;;;;;;28.98;17.42;;;2.20;99.90;;;;;;4972394;28;20022;-47
2023/12/19 04:03:36;;;;;;;29.38;17.13;;;2.20;99.90;;;;;;4971252;28;20023;-42
2023/12/19 04:06:02;;;;;;;28.77;16.25;;;2.20;99.90;;;;;;4971088;28;20027;-43
2023/12/19 04:08:28;;;;;;;32.28;17.52;;;2.20;99.90;;;;;;4970525;28;20063;-48
2023/12/19 04:10:53;;;;;;;31.25;16.75;;;2.20;99.90;;;;;;4970327;28;20106;-47
2023/12/19 04:13:19;;;;;;;31.20;18.27;;;2.20;99.90;;;;;;4970577;28;20025;-43
2023/12/19 04:15:44;;;;;;;33.72;18.50;;;2.30;99.90;;;;;;4970556;28;20101;-43
2023/12/19 04:18:11;;;;;;;29.48;16.70;;;2.30;99.90;;;;;;4970210;28;20027;-44
2023/12/19 04:20:37;;;;;;;29.85;16.35;;;2.30;99.90;;;;;;4970928;28;20046;-48
2023/12/19 04:23:02;;;;;;;27.77;16.38;;;2.30;99.90;;;;;;4971065;28;20456;-46
2023/12/19 04:25:28;;;;;;;29.85;17.40;;;2.20;99.90;;;;;;4970463;28;20054;-47
2023/12/19 04:27:53;;;;;;;31.20;16.63;;;2.20;99.90;;;;;;4970595;28;20501;-44
2023/12/19 04:30:19;;;;;;;28.60;16.67;;;2.30;99.90;;;;;;4970299;28;20077;-45
2023/12/19 04:32:44;;;;;;;29.52;16.00;;;2.30;99.90;;;;;;4970309;28;20098;-47
2023/12/19 04:35:10;;;;;;;31.10;17.17;;;2.20;99.90;;;;;;4970475;28;20059;-43
2023/12/19 04:37:35;;;;;;;27.30;17.23;;;2.30;99.90;;;;;;4970148;28;20451;-42
2023/12/19 04:40:02;;;;;;;25.38;15.50;;;2.20;99.90;;;;;;4970395;28;20030;-45
2023/12/19 04:42:28;;;;;;;28.38;16.65;;;2.20;99.90;;;;;;4969971;28;20072;-44
2023/12/19 04:44:53;;;;;;;28.23;15.57;;;2.20;99.90;;;;;;4952773;28;20027;-42
2023/12/19 04:47:19;;;;;;;31.35;17.13;;;2.20;99.90;;;;;;4969965;28;20027;-47
2023/12/19 04:49:45;;;;;;;31.70;17.02;;;2.30;99.90;;;;;;4970397;28;20070;-43
2023/12/19 04:52:11;;;;;;;28.88;15.68;;;2.30;99.90;;;;;;4970143;28;20481;-43
2023/12/19 04:54:36;;;;;;;23.58;16.33;;;2.30;99.90;;;;;;4970501;28;20035;-42
2023/12/19 04:57:02;;;;;;;26.85;14.98;;;2.20;99.90;;;;;;4953284;28;20026;-43
2023/12/19 04:59:28;;;;;;;25.77;15.55;;;2.20;99.90;;;;;;4970075;28;20038;-45
2023/12/19 05:01:54;;;;;;;24.70;15.02;;;2.30;99.90;;;;;;4969778;28;20022;-43
2023/12/19 05:04:19;;;;;;;25.05;15.70;;;2.30;99.90;;;;;;4970079;28;20148;-44
2023/12/19 05:06:45;;;;;;;24.35;16.20;;;2.30;99.90;;;;;;4969843;28;20559;-45
2023/12/19 05:09:10;;;;;;;24.70;14.60;;;2.30;99.90;;;;;;4968721;28;20027;-42
2023/12/19 05:11:36;;;;;;;27.25;16.13;;;2.30;99.90;;;;;;4969353;28;20049;-43
2023/12/19 05:14:02;;;;;;;27.33;15.80;;;2.40;99.90;;;;;;4969831;28;20042;-42
2023/12/19 05:16:28;;;;;;;22.25;14.05;;;2.40;99.90;;;;;;4969610;28;20344;-43
2023/12/19 05:18:53;;;;;;;27.42;15.00;;;2.40;99.90;;;;;;4969685;28;20035;-41
2023/12/19 05:21:21;;;;;;;25.48;15.55;;;2.30;99.90;;;;;;4969536;28;20397;-39
2023/12/19 05:23:46;;;;;;;27.05;17.13;;;2.30;99.90;;;;;;4969680;28;20061;-46
2023/12/19 05:26:12;;;;;;;24.52;15.23;;;2.30;99.90;;;;;;4969522;28;20051;-43
2023/12/19 05:28:39;;;;;;;26.58;15.75;;;2.30;99.90;;;;;;4969381;28;20039;-43
2023/12/19 05:31:04;;;;;;;30.70;16.90;;;2.30;99.90;;;;;;4951975;28;20030;-44
2023/12/19 05:33:32;;;;;;;35.42;18.23;;;2.30;99.90;;;;;;4969499;28;20041;-46
2023/12/19 05:35:57;;;;;;;27.88;17.05;;;2.20;99.90;;;;;;4969507;28;20080;-45
2023/12/19 05:38:23;;;;;;;26.35;16.02;;;2.20;99.90;;;;;;4969232;28;20023;-44
2023/12/19 05:40:51;;;;;;;25.50;15.93;;;2.20;99.90;;;;;;4969178;28;20126;-48
2023/12/19 05:43:17;;;;;;;26.48;15.27;;;2.30;99.90;;;;;;4969394;28;20439;-41
2023/12/19 05:45:42;;;;;;;22.70;15.68;;;2.30;99.90;;;;;;4969427;28;20031;-43
2023/12/19 05:48:08;;;;;;;25.98;15.05;;;2.30;99.90;;;;;;4969429;28;20279;-48
2023/12/19 05:50:34;;;;;;;22.88;14.40;;;2.40;99.90;;;;;;4969079;28;20490;-42
2023/12/19 05:52:59;;;;;;;21.17;14.43;;;2.40;99.90;;;;;;4969302;28;20030;-47
2023/12/19 05:55:25;;;;;;;25.52;14.07;;;2.40;99.90;;;;;;4969429;28;20112;-44
2023/12/19 05:57:50;;;;;;;21.10;13.93;;;2.40;99.90;;;;;;4969176;28;20363;-43
2023/12/19 06:00:17;;;;;;;19.27;13.98;;;2.40;99.90;;;;;;4952079;28;20092;-45
2023/12/19 06:02:43;;;;;;;22.42;15.05;;;2.40;99.90;;;;;;4969380;28;20027;-40
2023/12/19 06:05:09;;;;;;;18.83;13.20;;;2.30;99.90;;;;;;4969101;28;20038;-41
2023/12/19 06:07:38;;;;;;;20.98;12.95;;;2.30;99.90;;;;;;4968873;28;20102;-42
2023/12/19 06:10:08;;;;;;;22.73;13.25;;;2.30;99.90;;;;;;4951859;28;20053;-43
2023/12/19 06:12:34;;;;;;;21.42;13.65;;;2.30;99.90;;;;;;4968846;28;20371;-44
2023/12/19 06:15:00;;;;;;;19.35;13.32;;;2.30;99.90;;;;;;4968536;28;20038;-43
2023/12/19 06:17:26;;;;;;;22.27;13.50;;;2.30;99.90;;;;;;4969100;28;20133;-43
2023/12/19 06:19:51;;;;;;;22.73;14.82;;;2.30;99.90;;;;;;4970000;28;20035;-44
2023/12/19 06:22:17;;;;;;;22.05;14.48;;;2.30;99.90;;;;;;4972060;28;20031;-48
2023/12/19 06:24:42;;;;;;;20.15;13.68;;;2.30;99.90;;;;;;4971965;28;20105;-44
2023/12/19 06:27:08;;;;;;;19.92;13.65;;;2.30;99.90;;;;;;4972379;28;20561;-45
2023/12/19 06:29:34;;;;;;;21.08;13.77;;;2.20;99.90;;;;;;4971797;28;20057;-43
2023/12/19 06:31:59;;;;;;;19.17;12.93;;;2.20;99.90;;;;;;4971885;28;20513;-42
2023/12/19 06:34:28;;;;;;;19.30;12.90;;;2.20;99.90;;;;;;4972588;28;20101;-45
2023/12/19 06:36:53;;;;;;;23.58;14.35;;;2.10;99.90;;;;;;4972660;28;20022;-45
2023/12/19 06:39:19;;;;;;;19.73;12.95;;;2.10;99.90;;;;;;4972594;28;20508;-44
2023/12/19 06:41:45;;;;;;;21.95;14.38;;;2.10;99.90;;;;;;4971859;28;20042;-44
2023/12/19 06:44:12;;;;;;;20.52;13.90;;;2.10;99.90;;;;;;4971921;28;20023;-45
2023/12/19 06:46:37;;;;;;;19.63;13.15;;;2.10;99.90;;;;;;4971826;28;20027;-47
2023/12/19 06:49:03;;;;;;;19.38;13.63;;;2.10;99.90;;;;;;4971680;28;20104;-45
2023/12/19 06:51:29;;;;;;;23.13;15.10;;;2.20;99.90;;;;;;4972114;28;20045;-44
2023/12/19 06:53:56;;;;;;;19.35;13.38;;;2.30;99.90;;;;;;4954998;28;20027;-41
2023/12/19 06:56:26;;;;;;;17.33;13.18;;;2.40;99.90;;;;;;4971864;28;20018;-44
2023/12/19 06:58:52;;;;;;;20.20;14.02;;;2.30;99.90;;;;;;4972104;28;20490;-46
2023/12/19 07:01:17;;;;;;;21.25;14.13;;;2.40;99.90;;;;;;4972274;28;20179;-43
2023/12/19 07:03:43;;;;;;;17.98;12.68;;;2.40;99.90;;;;;;4970729;28;20094;-44
2023/12/19 07:06:14;;;;;;;23.08;13.55;;;2.40;99.90;;;;;;4970497;28;20045;-48
2023/12/19 07:08:40;;;;;;;22.15;14.50;;;2.40;99.90;;;;;;5016488;28;20031;-45
2023/12/19 07:11:05;;;;;;;19.52;13.45;;;2.30;99.90;;;;;;4971408;28;20394;-46
2023/12/19 07:13:32;;;;;;;21.90;14.88;;;2.30;99.90;;;;;;4970803;28;20037;-45
2023/12/19 07:15:58;;;;;;;24.27;16.23;;;2.30;99.90;;;;;;4971018;28;20543;-41
2023/12/19 07:18:23;;;;;;;25.30;15.60;;;2.30;99.90;;;;;;5008292;22;20039;-45
2023/12/19 07:20:49;;;;;;;23.98;16.25;;;2.30;99.90;;;;;;4953178;28;20062;-50
2023/12/19 07:23:15;;;;;;;23.02;14.57;;;2.30;99.90;;;;;;4972084;28;20034;-50
2023/12/19 07:25:41;;;;;;;22.98;14.90;;;2.30;99.90;;;;;;4953568;28;20462;-48
2023/12/19 07:28:07;;;;;;;26.13;16.48;;;2.30;99.90;;;;;;4971335;28;20521;-48
2023/12/19 07:30:32;;;;;;;23.75;16.00;;;2.30;99.90;;;;;;4971181;28;20113;-46
2023/12/19 07:33:01;;;;;;;24.48;15.23;;;2.30;99.90;;;;;;4970305;28;20106;-47
2023/12/19 07:35:26;;;;;;;24.60;14.60;;;2.20;99.90;;;;;;4953506;28;20030;-53
2023/12/19 07:37:52;;;;;;;27.67;14.95;;;2.20;99.90;;;;;;4971775;28;20096;-47
2023/12/19 07:40:17;;;;;;;25.65;16.05;;;2.10;99.90;;;;;;4971765;28;20034;-46
2023/12/19 07:42:44;;;;;;;24.92;15.15;;;2.20;99.90;;;;;;4971559;28;20027;-50
2023/12/19 07:45:13;;;;;;;25.02;15.15;;;2.20;99.90;;;;;;4971857;28;20023;-50
2023/12/19 07:47:38;;;;;;;24.02;15.13;;;2.20;99.90;;;;;;4971596;28;20409;-45
2023/12/19 07:50:05;;;;;;;22.95;15.68;;;2.30;99.90;;;;;;4970917;28;20039;-47
2023/12/19 07:52:30;;;;;;;26.45;14.75;;;2.30;99.90;;;;;;4952644;28;20019;-46
2023/12/19 07:54:56;;;;;;;24.08;14.85;;;2.20;99.90;;;;;;4971286;28;20409;-50
2023/12/19 07:57:21;;;;;;;27.20;16.30;;;2.30;99.90;;;;;;4971415;28;20106;-51
2023/12/19 07:59:48;;;;;;;24.23;15.80;;;2.40;99.90;;;;;;4953968;28;20038;-48
2023/12/19 08:02:13;;;;;;;25.45;17.30;;;2.40;99.90;;;;;;4953600;28;20042;-47
2023/12/19 08:04:39;;;;;;;28.02;15.40;;;2.40;99.90;;;;;;4971160;28;20026;-51
2023/12/19 08:07:05;;;;;;;28.90;15.57;;;2.40;99.90;;;;;;4953817;28;20023;-52
2023/12/19 08:09:30;;;;;;;25.38;14.63;;;2.40;99.90;;;;;;4970900;28;20042;-52
2023/12/19 08:11:56;;;;;;;23.90;15.48;;;2.40;99.90;;;;;;4970934;28;20430;-49
2023/12/19 08:14:25;;;;;;;25.52;14.85;;;2.40;99.90;;;;;;4971346;28;20025;-47
2023/12/19 08:16:50;;;;;;;24.15;14.57;;;2.40;99.90;;;;;;4970858;28;20062;-47
2023/12/19 08:19:16;;;;;;;24.65;14.40;;;2.40;99.90;;;;;;4970745;28;20066;-47
2023/12/19 08:21:49;;;;;;;25.08;14.45;;;2.40;99.90;;;;;;4971075;28;20026;-50
2023/12/19 08:24:14;;;;;;;23.77;14.80;;;2.50;99.90;;;;;;4953982;28;20031;-48
2023/12/19 08:26:49;;;;;;;21.83;14.20;;;2.60;99.90;;;;;;4971295;28;20045;-49
2023/12/19 08:29:15;;;;;;;24.30;14.75;;;2.60;99.90;;;;;;4970738;28;20027;-47
2023/12/19 08:31:41;;;;;;;31.25;16.02;;;2.50;99.90;;;;;;4970880;28;20054;-46
2023/12/19 08:34:06;;;;;;;21.55;12.38;;;2.50;99.90;;;;;;4954403;28;20386;-48
2023/12/19 08:36:32;;;;;;;23.20;14.40;;;2.50;99.90;;;;;;4971290;28;20031;-47
2023/12/19 08:38:59;;;;;;;21.15;13.30;;;2.60;99.90;;;;;;4954043;28;20049;-47
2023/12/19 08:41:25;;;;;;;24.30;13.88;;;2.60;99.90;;;;;;4970633;28;20030;-47
2023/12/19 08:43:51;;;;;;;20.70;13.45;;;2.60;99.90;;;;;;4971060;28;20395;-49
2023/12/19 08:46:17;;;;;;;22.50;14.68;;;2.60;99.90;;;;;;4971568;28;20508;-51
2023/12/19 08:48:43;;;;;;;27.52;14.40;;;2.70;99.90;;;;;;4970959;28;20037;-47
2023/12/19 08:51:12;;;;;;;23.88;13.77;;;2.70;99.90;;;;;;4970386;28;20393;-50
2023/12/19 08:53:37;;;;;;;21.25;13.55;;;2.70;99.90;;;;;;4970702;28;20374;-48
2023/12/19 08:56:03;;;;;;;23.48;13.80;;;2.70;99.90;;;;;;4970333;28;20106;-51
2023/12/19 08:58:29;;;;;;;30.63;16.05;;;2.70;99.90;;;;;;4970224;28;20023;-49
2023/12/19 09:00:54;;;;;;;28.08;13.38;;;2.70;99.90;;;;;;4969502;28;20509;-52
2023/12/19 09:03:20;;;;;;;21.30;13.30;;;2.70;99.90;;;;;;4970507;28;20478;-48
2023/12/19 09:05:46;;;;;;;22.75;14.10;;;2.70;99.90;;;;;;4970226;28;20023;-47
2023/12/19 09:08:12;;;;;;;21.08;13.57;;;2.80;99.90;;;;;;4970053;28;20034;-50
2023/12/19 09:10:38;;;;;;;21.88;13.38;;;2.80;99.90;;;;;;4969693;28;20073;-48
2023/12/19 09:13:05;;;;;;;21.02;12.95;;;2.80;99.90;;;;;;4970063;28;20398;-50
2023/12/19 09:15:30;;;;;;;23.17;14.35;;;2.90;99.90;;;;;;4970162;28;20179;-48
2023/12/19 09:17:56;;;;;;;19.58;11.75;;;2.80;99.90;;;;;;4969886;28;20559;-51
2023/12/19 09:20:23;;;;;;;21.45;14.27;;;2.80;99.90;;;;;;4969520;28;20038;-47
2023/12/19 09:22:49;;;;;;;23.17;13.90;;;2.80;99.90;;;;;;4969864;28;20058;-48
2023/12/19 09:25:15;;;;;;;24.58;14.02;;;2.80;99.90;;;;;;4969873;28;20137;-49
2023/12/19 09:27:42;;;;;;;20.58;13.63;;;2.80;99.90;;;;;;4969950;28;20029;-46
2023/12/19 09:30:11;;;;;;;25.00;15.52;;;2.80;99.90;;;;;;4969636;28;20030;-46
2023/12/19 09:32:38;;;;;;;24.15;12.73;;;2.80;99.90;;;;;;4952176;28;20023;-48
2023/12/19 09:35:05;;;;;;;24.10;13.45;;;2.90;99.90;;;;;;4969641;28;20094;-47
2023/12/19 09:37:30;;;;;;;23.23;14.15;;;2.90;99.90;;;;;;4969792;28;20033;-48
2023/12/19 09:39:56;;;;;;;21.45;13.35;;;2.90;99.90;;;;;;4969509;28;20026;-49
2023/12/19 09:42:21;;;;;;;22.02;14.07;;;2.90;99.90;;;;;;4969454;28;20406;-46
2023/12/19 09:44:47;;;;;;;22.88;13.73;;;2.90;99.90;;;;;;4952407;28;20088;-46
2023/12/19 09:47:20;;;;;;;26.60;15.20;;;2.90;99.90;;;;;;4969701;28;20031;-48
2023/12/19 09:49:49;;;;;;;23.90;12.88;;;2.90;99.90;;;;;;4969675;28;20077;-48
2023/12/19 09:52:15;;;;;;;22.95;13.80;;;3.00;99.90;;;;;;4969590;28;20027;-48
2023/12/19 09:54:41;;;;;;;28.65;13.38;;;3.00;99.90;;;;;;4970459;28;20041;-46
2023/12/19 09:57:08;;;;;;;19.83;13.27;;;3.00;99.90;;;;;;4972932;28;20027;-51
2023/12/19 09:59:35;;;;;;;19.50;11.95;;;3.00;99.90;;;;;;4972984;28;20375;-47
2023/12/19 10:02:01;;;;;;;17.50;11.80;;;3.00;99.90;;;;;;4972265;28;20030;-48
2023/12/19 10:04:27;;;;;;;18.98;10.63;;;3.00;99.90;;;;;;4973122;28;20393;-47
2023/12/19 10:06:58;;;;;;;17.73;10.95;;;3.10;99.90;;;;;;4972191;28;20026;-45
2023/12/19 10:09:24;;;;;;;17.52;11.05;;;3.10;99.90;;;;;;4954658;28;20512;-47
2023/12/19 10:12:03;;;;;;;20.33;10.55;;;3.20;99.90;;;;;;4971516;28;20478;-47
2023/12/19 10:14:28;;;;;;;18.40;10.18;;;3.20;99.90;;;;;;4972717;28;20027;-51
2023/12/19 10:16:54;;;;;;;17.25;9.93;;;3.30;99.90;;;;;;4972430;28;20038;-47
2023/12/19 10:19:27;;;;;;;12.02;8.88;;;3.30;99.90;;;;;;4972507;28;20557;-50
2023/12/19 10:22:10;;;;;;;16.25;9.73;;;3.30;99.90;;;;;;4972290;28;20443;-48
2023/12/19 10:24:36;;;;;;;21.25;9.50;;;3.40;99.90;;;;;;4972470;28;20110;-50
2023/12/19 10:27:05;;;;;;;13.90;9.32;;;3.60;99.90;;;;;;4971974;28;20137;-48
2023/12/19 10:29:36;;;;;;;14.23;8.65;;;3.60;99.90;;;;;;4954628;28;20569;-48
2023/12/19 10:32:15;;;;;;;15.75;9.15;;;3.70;99.90;;;;;;4971826;28;20035;-50
2023/12/19 10:34:41;;;;;;;14.05;9.02;;;3.70;99.90;;;;;;4971770;28;20096;-48
2023/12/19 10:37:20;;;;;;;16.00;9.35;;;3.70;99.90;;;;;;4971941;28;20027;-47
2023/12/19 10:39:47;;;;;;;13.38;9.13;;;3.70;99.90;;;;;;4971353;28;20030;-48
2023/12/19 10:42:13;;;;;;;12.25;7.68;;;3.70;99.90;;;;;;4971792;28;20021;-48
2023/12/19 10:44:42;;;;;;;12.80;8.65;;;3.70;99.90;;;;;;4971905;28;20397;-49
2023/12/19 10:47:08;;;;;;;13.18;8.65;;;3.70;99.90;;;;;;4971756;28;20041;-48
2023/12/19 10:49:37;;;;;;;12.13;8.10;;;3.70;99.90;;;;;;4971579;28;20031;-46
2023/12/19 10:52:09;;;;;;;14.65;8.32;;;3.70;99.90;;;;;;4952441;28;20027;-47
2023/12/19 10:54:36;;;;;;;14.48;9.48;;;3.80;99.90;;;;;;4969059;28;20023;-48
2023/12/19 10:57:05;;;;;;;18.95;11.57;;;3.80;99.90;;;;;;4971038;28;20033;-49
2023/12/19 10:59:37;;;;;;;28.95;15.48;;;3.80;99.90;;;;;;4953240;28;20046;-50
2023/12/19 11:02:40;;;;;;;17.25;10.10;;;3.70;99.90;;;;;;4969668;28;20108;-47
2023/12/19 11:05:28;;;;;;;16.00;9.88;;;3.90;99.90;;;;;;4971672;28;20065;-47
2023/12/19 11:07:58;;;;;;;15.32;8.48;;;3.90;99.90;;;;;;4970422;28;20023;-46
2023/12/19 11:10:27;;;;;;;15.68;8.98;;;4.00;99.90;;;;;;4970400;28;20031;-48
2023/12/19 11:12:53;;;;;;;13.68;8.50;;;4.00;99.90;;;;;;4953597;28;20485;-48
2023/12/19 11:15:20;;;;;;;11.68;8.10;;;4.00;99.90;;;;;;4970841;28;20481;-48
2023/12/19 11:18:04;;;;;;;13.23;8.55;;;4.10;99.90;;;;;;4971012;28;20026;-49
2023/12/19 11:20:40;;;;;;;14.57;9.07;;;4.10;99.90;;;;;;4951820;28;20568;-45
2023/12/19 11:23:22;;;;;;;16.33;8.75;;;4.00;99.90;;;;;;4950621;29;20357;-47
2023/12/19 11:25:54;;;;;;;15.50;8.50;;;4.00;99.90;;;;;;4951605;29;20040;-48
2023/12/19 11:28:20;;;;;;;15.25;7.93;;;4.00;99.90;;;;;;4950805;28;20031;-49
2023/12/19 11:30:45;;;;;;;17.48;8.70;;;4.00;99.90;;;;;;4951670;29;20031;-48
2023/12/19 11:33:13;;;;;;;12.60;8.35;;;4.10;99.90;;;;;;4952201;29;20034;-47
2023/12/19 11:35:39;;;;;;;11.82;7.90;;;4.00;99.90;;;;;;4959462;28;20440;-50
2023/12/19 11:38:14;;;;;;;12.63;7.53;;;4.00;99.90;;;;;;4971419;28;20027;-47
2023/12/19 11:40:49;;;;;;;12.63;7.90;;;4.00;99.90;;;;;;4954009;28;20027;-48
2023/12/19 11:43:30;;;;;;;13.98;8.63;;;4.10;99.90;;;;;;4971405;28;20429;-46
2023/12/19 11:46:15;;;;;;;9.02;6.63;;;4.10;99.90;;;;;;4971171;28;20023;-46
2023/12/19 11:48:49;;;;;;;;;;;4.10;99.90;;;;;;4971022;28;20046;-48
2023/12/19 11:51:43;;;;;;;11.95;7.55;;;4.10;99.90;;;;;;4970245;28;19917;-50
2023/12/19 11:54:13;;;;;;;11.88;7.47;;;4.10;99.90;;;;;;4953855;28;20083;-47
2023/12/19 11:56:39;;;;;;;11.40;7.15;;;4.20;99.90;;;;;;4970810;28;20100;-47
2023/12/19 11:59:05;;;;;;;11.23;6.88;;;4.10;99.90;;;;;;4970369;28;20478;-49
2023/12/19 12:01:41;;;;;;;11.65;6.70;;;4.20;99.90;;;;;;4970199;28;20057;-51
2023/12/19 12:04:10;;;;;;;13.18;8.13;;;4.20;99.90;;;;;;4971111;28;20100;-47
2023/12/19 12:06:36;;;;;;;13.00;8.35;;;4.20;99.90;;;;;;4970504;28;20493;-48
2023/12/19 12:09:05;;;;;;;12.35;8.43;;;4.20;99.90;;;;;;4970633;28;20027;-47
2023/12/19 12:11:44;;;;;;;11.15;7.55;;;4.20;99.90;;;;;;4970249;28;20034;-49
2023/12/19 12:14:10;;;;;;;13.40;8.15;;;4.20;99.90;;;;;;4971162;28;20023;-52
2023/12/19 12:16:37;;;;;;;14.32;8.77;;;4.20;99.90;;;;;;4970793;28;20023;-50
2023/12/19 12:19:12;;;;;;;13.32;7.90;;;4.20;99.90;;;;;;4970116;28;20046;-47
2023/12/19 12:21:44;;;;;;;14.00;8.98;;;4.20;99.90;;;;;;4970460;28;20049;-49
2023/12/19 12:24:16;;;;;;;13.05;8.73;;;4.20;99.90;;;;;;4952718;28;20533;-49
2023/12/19 12:26:42;;;;;;;12.82;9.00;;;4.20;99.90;;;;;;4953581;28;20478;-47
2023/12/19 12:29:07;;;;;;;12.98;8.13;;;4.20;99.90;;;;;;4970409;28;20049;-49
2023/12/19 12:31:33;;;;;;;11.30;7.55;;;4.10;99.90;;;;;;4969839;28;20466;-49
2023/12/19 12:34:00;;;;;;;14.10;8.68;;;4.20;99.90;;;;;;4970075;28;20026;-46
2023/12/19 12:36:26;;;;;;;10.80;7.65;;;4.20;99.90;;;;;;4970181;28;20019;-47